Frohmuhl, France

54°F / 12.2°C
Mostly Cloudy
Humidity: 76%
Dew Point: 47°F / 8°C
Wind: SSW at 3.8 mph / 6.1 km/h
Wind Gust: 6.9 mph / 11.1 km/h
Pressure: 30.01 in / 1016 hPa (Steady)
Visibility: 6.2 miles / 10.0 kilometers
Clouds: Mostly Cloudy (BKN) : 1300 ft / 396 m
Mostly Cloudy (BKN) : 1900 ft / 579 m
Mostly Cloudy (BKN) : 3400 ft / 1036 m
Yesterday's Maximum: 74.5°F / 23.6°C
Yesterday's Minimum: 39.7°F / 4.3°C
UV: 4 out of 16
Sunrise:6:19 AM CEST
Sunset:8:38 PM CEST
Moon Rise:2:53 AM CEST
Moon Set:11:39 AM CEST
Moon Phase Waning Gibbous
NOAA Weather Radio
No local feed.
METAR LFST 261130Z AUTO 19009KT 9999 BKN013 BKN019 BKN034 11/07 Q1016 TEMPO SHRA SCT030TCU
As of: 1:49 PM CEST on April 26, 2019
Observed at: Météo rosteig, Rosteig, France

View Station's History

No Yes

Local Satellite

Current Satellite Forecast
Region Default Local
No Yes

View Full Screen WunderMap

Forecast

Current Satellite Forecast

Features

Weather Apps

WunderRadio

Weather Underground Apps
Check out our wide variety of mobile and setup applications.

Weather Underground Applications

Top of Page

© Copyright 2019
The Weather Company, LLC